Hunter D — WDI8653 — position and weather

sailwx.info

Track history (hours):
 
Tides and Currents Weather Stations Pressure Air Temp Water Temp Dewpoint Dewpoint Depression Visibility Wind Speed Wind Dir Waves Ship Positions

Hunter D

Owner: Harley Marine Services, Inc, Seattle, WA. More information available from US FCC via Universal Licensing System and Coast Guard Vessel Documentation Center.

Last reported at 2017-Nov-18 14:00 UTC. Time now 2017-Nov-18 14:29 UTC.
Position N 48°31' W 122°34'.

Length 35 m; draft 4.2 m.

Type: Tug. MMSI: 367740770.

Date/timePositionNaut miles runAvg speedWind from/ knotsBaromVisibWave heightAir tempDewpointWater temp
2017-Nov-18 14:00N 48°31' W 122°34'1 1.2
2017-Nov-18 13:30N 48°30' W 122°34'0 0.2
2017-Nov-18 13:00N 48°30' W 122°34'0 0.0
2017-Nov-18 12:30N 48°30' W 122°34'0 0.0
2017-Nov-18 12:00N 48°30' W 122°34'0 0.0
2017-Nov-18 11:31N 48°30' W 122°34'0 0.0
2017-Nov-18 11:00N 48°30' W 122°34'0 0.0
2017-Nov-18 10:29N 48°30' W 122°34'0 0.0
2017-Nov-18 10:00N 48°30' W 122°34'0 0.0
2017-Nov-18 09:30N 48°30' W 122°34'0 0.0
2017-Nov-18 09:00N 48°30' W 122°34'0 0.0
2017-Nov-18 08:30N 48°30' W 122°34'0 0.0
2017-Nov-18 08:01N 48°30' W 122°34'0 0.0
2017-Nov-18 07:31N 48°30' W 122°34'0 0.0
2017-Nov-18 07:01N 48°30' W 122°34'0 0.0
2017-Nov-18 06:30N 48°30' W 122°34'0 0.0
2017-Nov-18 06:00N 48°30' W 122°34'0 0.0
2017-Nov-18 05:30N 48°30' W 122°34'0 0.0
2017-Nov-18 05:01N 48°30' W 122°34'0 0.0
2017-Nov-18 04:30N 48°30' W 122°34'0 0.0
2017-Nov-18 04:00N 48°30' W 122°34'0 0.0
2017-Nov-18 03:30N 48°30' W 122°34'0 0.0
2017-Nov-18 03:01N 48°30' W 122°34'0 0.0
2017-Nov-18 02:30N 48°30' W 122°34'0 0.0
2017-Nov-18 02:00N 48°30' W 122°34'0 0.0
2017-Nov-18 01:31N 48°30' W 122°34'0 0.0
2017-Nov-18 01:01N 48°30' W 122°34'0 0.0
2017-Nov-18 00:31N 48°30' W 122°34'0 0.0
2017-Nov-18 00:01N 48°30' W 122°34'0 0.0
2017-Nov-17 23:31N 48°30' W 122°34'0 0.0
2017-Nov-17 23:01N 48°30' W 122°34'0 0.0
2017-Nov-17 22:30N 48°30' W 122°34'0 0.4
2017-Nov-17 22:00N 48°31' W 122°34'1 2.8
2017-Nov-17 21:30N 48°32' W 122°36'5 6.0
2017-Nov-17 20:41N 48°30' W 122°43'1 5.1
2017-Nov-17 20:30N 48°29' W 122°44'33 7.2
2017-Nov-17 15:53N 47°57' W 122°32'3 8.8
2017-Nov-17 15:30N 47°54' W 122°28'4 8.9
2017-Nov-17 15:00N 47°50' W 122°27'4 8.9
2017-Nov-17 14:30N 47°46' W 122°26'7 8.7
2017-Nov-17 13:39N 47°38' W 122°26'1 8.1
2017-Nov-17 13:30N 47°37' W 122°25'3 5.7
2017-Nov-17 13:00N 47°36' W 122°21'0 0.9
2017-Nov-17 12:31N 47°35' W 122°21'1 1.3
2017-Nov-17 12:01N 47°35' W 122°21'0 0.8
2017-Nov-17 11:30N 47°34' W 122°21'0 0.0
2017-Nov-17 10:57N 47°34' W 122°21'0 0.0
2017-Nov-17 10:30N 47°34' W 122°21'0 0.0
2017-Nov-17 10:00N 47°34' W 122°21'0 0.0
2017-Nov-17 09:30N 47°34' W 122°21'0 0.0
2017-Nov-17 09:00N 47°34' W 122°21'0 0.0
2017-Nov-17 08:30N 47°34' W 122°21'0 0.0
2017-Nov-17 08:00N 47°34' W 122°21'0 0.0
2017-Nov-17 07:30N 47°34' W 122°21'0 0.0
2017-Nov-17 06:58N 47°34' W 122°21'1 0.3
2017-Nov-17 02:48N 47°36' W 122°21'1 2.3
2017-Nov-17 02:30N 47°36' W 122°22'3 6.8
2017-Nov-17 02:01N 47°34' W 122°26'5 9.6
2017-Nov-17 01:31N 47°30' W 122°24'5 9.5
2017-Nov-17 01:01N 47°25' W 122°22'4 8.1
2017-Nov-17 00:30N 47°21' W 122°23'4 8.3
2017-Nov-17 00:00N 47°18' W 122°27'3 0.3
2017-Nov-16 14:28N 47°16' W 122°23'2 4.3
2017-Nov-16 14:00N 47°17' W 122°25'2 3.2
2017-Nov-16 13:31N 47°18' W 122°27'4 7.2
2017-Nov-16 13:00N 47°21' W 122°25'3 6.9
2017-Nov-16 12:30N 47°24' W 122°23'4 8.6
2017-Nov-16 12:00N 47°28' W 122°26'4 8.4
2017-Nov-16 11:30N 47°32' W 122°27'4 7.9
2017-Nov-16 11:00N 47°36' W 122°24'2 4.6
2017-Nov-16 10:31N 47°36' W 122°21'1 1.5
2017-Nov-16 10:01N 47°35' W 122°21'0 0.0
2017-Nov-16 09:30N 47°35' W 122°21'0 0.0
2017-Nov-16 09:00N 47°35' W 122°21'0 0.0
2017-Nov-16 08:30N 47°35' W 122°21'0 0.0
2017-Nov-16 08:01N 47°35' W 122°21'0 0.0
2017-Nov-16 07:30N 47°35' W 122°21'0 0.0
2017-Nov-16 07:01N 47°35' W 122°21'0 0.0
2017-Nov-16 06:30N 47°35' W 122°21'0 0.0
2017-Nov-16 06:00N 47°35' W 122°21'0 0.0
2017-Nov-16 05:30N 47°35' W 122°21'0 0.0
2017-Nov-16 05:00N 47°35' W 122°21'0 0.0
2017-Nov-16 04:30N 47°35' W 122°21'0 0.0
2017-Nov-16 04:01N 47°35' W 122°21'0 0.0
2017-Nov-16 03:30N 47°35' W 122°21'0 0.0
2017-Nov-16 03:00N 47°35' W 122°21'0 0.0
2017-Nov-16 02:30N 47°35' W 122°21'0 0.0
2017-Nov-16 02:00N 47°35' W 122°21'0 0.1
2017-Nov-16 01:30N 47°35' W 122°21'0 0.1
2017-Nov-16 00:59N 47°35' W 122°21'0 0.1
2017-Nov-16 00:29N 47°35' W 122°21'1 2.3
2017-Nov-16 00:00N 47°36' W 122°21'2 3.4
2017-Nov-15 23:31N 47°36' W 122°24'3 6.0
2017-Nov-15 23:00N 47°39' W 122°26'3 5.9
2017-Nov-15 22:30N 47°42' W 122°26'3 6.2
2017-Nov-15 22:00N 47°45' W 122°25'2 4.4
2017-Nov-15 21:30N 47°47' W 122°24'0 0.7
2017-Nov-15 21:00N 47°47' W 122°24'0 0.0
2017-Nov-15 20:30N 47°47' W 122°24'0 0.0
2017-Nov-15 20:01N 47°47' W 122°24'0 0.0
2017-Nov-15 19:30N 47°47' W 122°24'0 0.0
2017-Nov-15 19:00N 47°47' W 122°24'0 0.0
2017-Nov-15 18:30N 47°47' W 122°24'0 0.0
2017-Nov-15 18:00N 47°47' W 122°24'0 0.0
2017-Nov-15 17:31N 47°47' W 122°24'0 0.0
2017-Nov-15 17:00N 47°47' W 122°24'0 0.0
2017-Nov-15 16:19N 47°47' W 122°24'0 0.0
2017-Nov-15 16:00N 47°47' W 122°24'0 0.0
2017-Nov-15 15:31N 47°47' W 122°24'0 0.0
2017-Nov-15 15:01N 47°47' W 122°24'0 0.0
2017-Nov-15 14:30N 47°47' W 122°24'0 0.0
2017-Nov-15 14:00N 47°47' W 122°24'0 0.0
2017-Nov-15 13:30N 47°47' W 122°24'0 0.0
2017-Nov-15 13:00N 47°47' W 122°24'0 0.0
2017-Nov-15 12:30N 47°47' W 122°24'0 0.0
2017-Nov-15 12:01N 47°47' W 122°24'0 0.6
2017-Nov-15 11:30N 47°47' W 122°24'2 4.7
2017-Nov-15 11:00N 47°45' W 122°26'3 6.5
2017-Nov-15 10:31N 47°42' W 122°26'3 6.4
2017-Nov-15 10:00N 47°39' W 122°27'4 7.1
2017-Nov-15 09:30N 47°36' W 122°23'2 3.7
2017-Nov-15 09:00N 47°35' W 122°21'1 1.5
2017-Nov-15 08:30N 47°34' W 122°21'0 0.0
2017-Nov-15 08:00N 47°34' W 122°21'0 0.0
2017-Nov-15 07:29N 47°34' W 122°21'0 0.0
2017-Nov-15 07:00N 47°34' W 122°21'0 0.0
2017-Nov-15 06:30N 47°34' W 122°21'0 0.0
2017-Nov-15 05:58N 47°34' W 122°21'0 0.0
2017-Nov-15 05:30N 47°34' W 122°21'0 0.0
2017-Nov-15 05:00N 47°34' W 122°21'0 0.0
2017-Nov-15 04:21N 47°34' W 122°21'0 0.0
2017-Nov-15 03:38N 47°34' W 122°21'0 0.0
2017-Nov-15 03:29N 47°34' W 122°21'0 0.0
2017-Nov-15 02:58N 47°34' W 122°21'0 0.0
2017-Nov-15 02:27N 47°34' W 122°21'0 0.0
2017-Nov-15 01:49N 47°34' W 122°21'0 0.0
2017-Nov-15 01:28N 47°34' W 122°21'0 0.0
2017-Nov-15 00:59N 47°34' W 122°21'0 0.0
2017-Nov-14 23:09N 47°34' W 122°21'0 0.0
2017-Nov-14 23:00N 47°34' W 122°21'0 0.0
2017-Nov-14 22:30N 47°34' W 122°21'0 0.0
2017-Nov-14 22:00N 47°34' W 122°21'1 2.8
2017-Nov-14 21:30N 47°36' W 122°21'0 0.5
2017-Nov-14 21:01N 47°36' W 122°22'2 4.4
2017-Nov-14 20:30N 47°36' W 122°25'2 3.9
2017-Nov-14 20:00N 47°36' W 122°22'2 3.3
2017-Nov-14 19:28N 47°34' W 122°21'0 0.0
2017-Nov-14 18:49N 47°34' W 122°21'0 0.0
2017-Nov-14 18:27N 47°34' W 122°21'0 0.0
2017-Nov-14 18:00N 47°34' W 122°21'0 0.6
2017-Nov-14 17:31N 47°35' W 122°21'1 1.4
2017-Nov-14 17:01N 47°35' W 122°21'3 6.2
2017-Nov-14 16:31N 47°35' W 122°25'611.4
2017-Nov-14 16:00N 47°30' W 122°24'611.9
2017-Nov-14 15:30N 47°24' W 122°21'611.0
2017-Nov-14 15:00N 47°20' W 122°26'3 0.2
2017-Nov-14 03:53N 47°17' W 122°25'1 1.0
2017-Nov-14 03:22N 47°17' W 122°26'1 2.7
2017-Nov-14 03:00N 47°18' W 122°27'1 1.4
2017-Nov-14 02:30N 47°18' W 122°28'1 1.7
2017-Nov-14 01:54N 47°18' W 122°27'1 3.0
2017-Nov-14 01:30N 47°18' W 122°28'1 1.3
2017-Nov-14 01:00N 47°19' W 122°28'1 1.9
2017-Nov-14 00:30N 47°20' W 122°28'1 2.0
2017-Nov-14 00:01N 47°21' W 122°27'1 2.1
2017-Nov-13 23:30N 47°21' W 122°25'1 1.6
2017-Nov-13 23:00N 47°22' W 122°25'1 1.0
2017-Nov-13 22:30N 47°22' W 122°24'1 1.7
2017-Nov-13 22:00N 47°22' W 122°23'6 0.2
2017-Nov-12 20:37N 47°17' W 122°26'0 1.0
2017-Nov-12 20:23N 47°17' W 122°26'0 0.4
2017-Nov-12 20:00N 47°17' W 122°26'3 0.1
2017-Nov-11 17:53N 47°16' W 122°23'0 0.0
2017-Nov-11 15:03N 47°16' W 122°23'0 0.0
2017-Nov-11 14:34N 47°16' W 122°23'0 0.0
2017-Nov-11 14:26N 47°16' W 122°23'0 0.0
2017-Nov-11 14:00N 47°16' W 122°23'2 1.9
2017-Nov-11 13:10N 47°17' W 122°25'1 3.0
2017-Nov-11 12:59N 47°17' W 122°25'1 2.7
2017-Nov-11 12:30N 47°18' W 122°27'2 3.8
2017-Nov-11 12:00N 47°20' W 122°28'2 4.6
2017-Nov-11 11:30N 47°21' W 122°25'3 5.9
2017-Nov-11 11:00N 47°23' W 122°22'3 5.1
2017-Nov-11 10:30N 47°25' W 122°24'3 5.5
2017-Nov-11 10:01N 47°28' W 122°25'3 5.8
2017-Nov-11 09:30N 47°31' W 122°27'3 6.1
2017-Nov-11 09:00N 47°34' W 122°28'3 6.1
2017-Nov-11 08:31N 47°37' W 122°28'3 6.8
2017-Nov-11 08:00N 47°40' W 122°28'4 7.0
2017-Nov-11 07:29N 47°44' W 122°28'3 6.7
2017-Nov-11 07:00N 47°46' W 122°25'1 2.1
2017-Nov-11 06:30N 47°47' W 122°24'0 0.1
2017-Nov-11 06:01N 47°47' W 122°24'0 0.0
2017-Nov-11 05:30N 47°47' W 122°24'0 0.0
2017-Nov-11 05:00N 47°47' W 122°24'0 0.0
2017-Nov-11 04:30N 47°47' W 122°24'0 0.0
2017-Nov-11 04:01N 47°47' W 122°24'0 0.0
2017-Nov-11 03:30N 47°47' W 122°24'0 0.0
2017-Nov-11 03:01N 47°47' W 122°24'0 0.0
2017-Nov-11 02:31N 47°47' W 122°24'0 0.0
2017-Nov-11 02:01N 47°47' W 122°24'0 0.0
2017-Nov-11 01:31N 47°47' W 122°24'0 0.0
2017-Nov-11 01:00N 47°47' W 122°24'0 0.0
2017-Nov-11 00:30N 47°47' W 122°24'0 0.0
2017-Nov-11 00:00N 47°47' W 122°24'0 0.0
2017-Nov-10 23:30N 47°47' W 122°24'0 0.0
2017-Nov-10 23:00N 47°47' W 122°24'0 0.0
2017-Nov-10 22:30N 47°47' W 122°24'0 0.0
2017-Nov-10 22:00N 47°47' W 122°24'0 0.0
2017-Nov-10 21:31N 47°47' W 122°24'0 0.0
2017-Nov-10 21:00N 47°47' W 122°24'0 0.0
2017-Nov-10 20:30N 47°47' W 122°24'0 0.0
2017-Nov-10 20:00N 47°47' W 122°24'0 0.0
2017-Nov-10 19:30N 47°47' W 122°24'0 0.0
2017-Nov-10 19:01N 47°47' W 122°24'0 0.0
2017-Nov-10 18:30N 47°47' W 122°24'0 0.0
2017-Nov-10 18:00N 47°47' W 122°24'0 0.0
2017-Nov-10 17:30N 47°47' W 122°24'0 0.0
2017-Nov-10 17:01N 47°47' W 122°24'0 0.0
2017-Nov-10 16:30N 47°47' W 122°24'0 0.0
2017-Nov-10 16:00N 47°47' W 122°24'0 0.0
2017-Nov-10 15:31N 47°47' W 122°24'0 0.0
2017-Nov-10 15:00N 47°47' W 122°24'0 0.0
2017-Nov-10 14:31N 47°47' W 122°24'0 0.0
2017-Nov-10 14:00N 47°47' W 122°24'0 0.0
2017-Nov-10 13:30N 47°47' W 122°24'0 0.0
2017-Nov-10 13:00N 47°47' W 122°24'0 0.0
2017-Nov-10 12:31N 47°47' W 122°24'0 0.0
2017-Nov-10 12:00N 47°47' W 122°24'0 0.0
2017-Nov-10 11:31N 47°47' W 122°24'0 0.0
2017-Nov-10 11:01N 47°47' W 122°24'0 0.0
2017-Nov-10 10:30N 47°47' W 122°24'0 0.0
2017-Nov-10 10:00N 47°47' W 122°24'0 0.2
2017-Nov-10 09:30N 47°47' W 122°24'0 0.0
2017-Nov-10 09:01N 47°47' W 122°24'0 0.0
2017-Nov-10 08:30N 47°47' W 122°24'0 0.0
2017-Nov-10 08:01N 47°47' W 122°24'0 0.0
2017-Nov-10 07:30N 47°47' W 122°24'0 0.0
2017-Nov-10 07:00N 47°47' W 122°24'0 0.0
2017-Nov-10 06:30N 47°47' W 122°24'0 0.0
2017-Nov-10 06:01N 47°47' W 122°24'0 0.0
2017-Nov-10 05:30N 47°47' W 122°24'0 0.0
2017-Nov-10 05:00N 47°47' W 122°24'0 0.0
2017-Nov-10 04:31N 47°47' W 122°24'0 0.0
2017-Nov-10 04:00N 47°47' W 122°24'0 0.0
2017-Nov-10 03:30N 47°47' W 122°24'0 0.0
2017-Nov-10 03:01N 47°47' W 122°24'0 0.0
2017-Nov-10 02:30N 47°47' W 122°24'2 3.5
2017-Nov-10 02:00N 47°45' W 122°25'4 7.6
2017-Nov-10 01:29N 47°41' W 122°26'4 7.2
2017-Nov-10 00:59N 47°38' W 122°25'4 7.7
2017-Nov-10 00:31N 47°36' W 122°21'0 0.5
2017-Nov-10 00:00N 47°35' W 122°21'0 0.4
2017-Nov-09 23:30N 47°35' W 122°21'0 0.4
2017-Nov-09 23:00N 47°35' W 122°21'0 0.0
2017-Nov-09 22:26N 47°35' W 122°21'0 0.0
2017-Nov-09 22:00N 47°35' W 122°21'0 0.0
2017-Nov-09 21:30N 47°35' W 122°21'0 0.0
2017-Nov-09 21:01N 47°35' W 122°21'0 0.0
2017-Nov-09 20:30N 47°35' W 122°21'0 0.0
2017-Nov-09 20:00N 47°35' W 122°21'0 0.0
2017-Nov-09 19:30N 47°35' W 122°21'0 0.0
2017-Nov-09 19:01N 47°35' W 122°21'0 0.0
2017-Nov-09 18:30N 47°35' W 122°21'0 0.0
2017-Nov-09 17:53N 47°35' W 122°21'0 0.0
2017-Nov-09 17:30N 47°35' W 122°21'0 0.0
2017-Nov-09 17:01N 47°35' W 122°21'0 0.5
2017-Nov-09 16:30N 47°35' W 122°21'0 0.5
2017-Nov-09 16:00N 47°35' W 122°21'0 0.0
2017-Nov-09 15:30N 47°35' W 122°21'0 1.0
2017-Nov-09 15:00N 47°36' W 122°21'1 2.2
2017-Nov-09 14:30N 47°36' W 122°23'2 4.6
2017-Nov-09 14:00N 47°37' W 122°25'3 6.3
2017-Nov-09 13:30N 47°40' W 122°28'4 7.2
2017-Nov-09 13:00N 47°43' W 122°27'4 8.0
2017-Nov-09 12:30N 47°47' W 122°27'4 8.3
2017-Nov-09 12:00N 47°51' W 122°29'4 8.2
2017-Nov-09 11:30N 47°55' W 122°31'35 6.7
2017-Nov-09 06:15N 48°29' W 122°44'3 9.0
2017-Nov-09 05:57N 48°31' W 122°41'4 8.6
2017-Nov-09 05:31N 48°31' W 122°35'1 2.1
2017-Nov-09 05:00N 48°30' W 122°34'0 0.0
2017-Nov-09 04:31N 48°30' W 122°34'0 0.0
2017-Nov-09 04:00N 48°30' W 122°34'0 0.0
2017-Nov-09 03:30N 48°30' W 122°34'0 0.0
2017-Nov-09 03:00N 48°30' W 122°34'0 0.0
2017-Nov-09 02:30N 48°30' W 122°34'0 0.0
2017-Nov-09 02:00N 48°30' W 122°34'0 0.0
2017-Nov-09 01:30N 48°30' W 122°34'0 0.0
2017-Nov-09 01:00N 48°30' W 122°34'0 0.0
2017-Nov-09 00:30N 48°30' W 122°34'0 0.0
2017-Nov-09 00:01N 48°30' W 122°34'0 0.0
2017-Nov-08 23:30N 48°30' W 122°34'0 0.0
2017-Nov-08 23:00N 48°30' W 122°34'0 0.0
2017-Nov-08 22:31N 48°30' W 122°34'0 0.0
2017-Nov-08 22:00N 48°30' W 122°34'0 0.0
2017-Nov-08 21:30N 48°30' W 122°34'0 0.0
2017-Nov-08 21:00N 48°30' W 122°34'0 0.0
2017-Nov-08 20:30N 48°30' W 122°34'0 0.0
2017-Nov-08 20:00N 48°30' W 122°34'0 0.0
2017-Nov-08 19:30N 48°30' W 122°34'0 0.0
2017-Nov-08 19:00N 48°30' W 122°34'0 0.0
2017-Nov-08 18:30N 48°30' W 122°34'0 0.0
2017-Nov-08 18:00N 48°30' W 122°34'0 0.0
2017-Nov-08 17:30N 48°30' W 122°34'0 0.0
2017-Nov-08 17:00N 48°30' W 122°34'0 0.0
2017-Nov-08 16:31N 48°30' W 122°34'0 0.0
2017-Nov-08 16:00N 48°30' W 122°34'0 0.0
2017-Nov-08 15:30N 48°30' W 122°34'0 0.6
2017-Nov-08 15:01N 48°31' W 122°35'1 2.1
2017-Nov-08 14:30N 48°32' W 122°35'  
Track history (hours):
 
Tides and Currents Weather Stations Pressure Air Temp Water Temp Dewpoint Dewpoint Depression Visibility Wind Speed Wind Dir Waves Ship Positions

Hunter D

Owner: Harley Marine Services, Inc, Seattle, WA. More information available from US FCC via Universal Licensing System and Coast Guard Vessel Documentation Center.

Last reported at 2017-Nov-18 14:00 UTC. Time now 2017-Nov-18 14:29 UTC.
Position N 48°31' W 122°34'.

Length 35 m; draft 4.2 m.

Type: Tug. MMSI: 367740770.

Date/timePositionNaut miles runAvg speedWind from/ knotsBaromVisibWave heightAir tempDewpointWater temp
2017-Nov-18 14:00N 48°31' W 122°34'1 1.2
2017-Nov-18 13:30N 48°30' W 122°34'0 0.2
2017-Nov-18 13:00N 48°30' W 122°34'0 0.0
2017-Nov-18 12:30N 48°30' W 122°34'0 0.0
2017-Nov-18 12:00N 48°30' W 122°34'0 0.0
2017-Nov-18 11:31N 48°30' W 122°34'0 0.0
2017-Nov-18 11:00N 48°30' W 122°34'0 0.0
2017-Nov-18 10:29N 48°30' W 122°34'0 0.0
2017-Nov-18 10:00N 48°30' W 122°34'0 0.0
2017-Nov-18 09:30N 48°30' W 122°34'0 0.0
2017-Nov-18 09:00N 48°30' W 122°34'0 0.0
2017-Nov-18 08:30N 48°30' W 122°34'0 0.0
2017-Nov-18 08:01N 48°30' W 122°34'0 0.0
2017-Nov-18 07:31N 48°30' W 122°34'0 0.0
2017-Nov-18 07:01N 48°30' W 122°34'0 0.0
2017-Nov-18 06:30N 48°30' W 122°34'0 0.0
2017-Nov-18 06:00N 48°30' W 122°34'0 0.0
2017-Nov-18 05:30N 48°30' W 122°34'0 0.0
2017-Nov-18 05:01N 48°30' W 122°34'0 0.0
2017-Nov-18 04:30N 48°30' W 122°34'0 0.0
2017-Nov-18 04:00N 48°30' W 122°34'0 0.0
2017-Nov-18 03:30N 48°30' W 122°34'0 0.0
2017-Nov-18 03:01N 48°30' W 122°34'0 0.0
2017-Nov-18 02:30N 48°30' W 122°34'0 0.0
2017-Nov-18 02:00N 48°30' W 122°34'0 0.0
2017-Nov-18 01:31N 48°30' W 122°34'0 0.0
2017-Nov-18 01:01N 48°30' W 122°34'0 0.0
2017-Nov-18 00:31N 48°30' W 122°34'0 0.0
2017-Nov-18 00:01N 48°30' W 122°34'0 0.0
2017-Nov-17 23:31N 48°30' W 122°34'0 0.0
2017-Nov-17 23:01N 48°30' W 122°34'0 0.0
2017-Nov-17 22:30N 48°30' W 122°34'0 0.4
2017-Nov-17 22:00N 48°31' W 122°34'1 2.8
2017-Nov-17 21:30N 48°32' W 122°36'5 6.0
2017-Nov-17 20:41N 48°30' W 122°43'1 5.1
2017-Nov-17 20:30N 48°29' W 122°44'33 7.2
2017-Nov-17 15:53N 47°57' W 122°32'3 8.8
2017-Nov-17 15:30N 47°54' W 122°28'4 8.9
2017-Nov-17 15:00N 47°50' W 122°27'4 8.9
2017-Nov-17 14:30N 47°46' W 122°26'7 8.7
2017-Nov-17 13:39N 47°38' W 122°26'1 8.1
2017-Nov-17 13:30N 47°37' W 122°25'3 5.7
2017-Nov-17 13:00N 47°36' W 122°21'0 0.9
2017-Nov-17 12:31N 47°35' W 122°21'1 1.3
2017-Nov-17 12:01N 47°35' W 122°21'0 0.8
2017-Nov-17 11:30N 47°34' W 122°21'0 0.0
2017-Nov-17 10:57N 47°34' W 122°21'0 0.0
2017-Nov-17 10:30N 47°34' W 122°21'0 0.0
2017-Nov-17 10:00N 47°34' W 122°21'0 0.0
2017-Nov-17 09:30N 47°34' W 122°21'0 0.0
2017-Nov-17 09:00N 47°34' W 122°21'0 0.0
2017-Nov-17 08:30N 47°34' W 122°21'0 0.0
2017-Nov-17 08:00N 47°34' W 122°21'0 0.0
2017-Nov-17 07:30N 47°34' W 122°21'0 0.0
2017-Nov-17 06:58N 47°34' W 122°21'1 0.3
2017-Nov-17 02:48N 47°36' W 122°21'1 2.3
2017-Nov-17 02:30N 47°36' W 122°22'3 6.8
2017-Nov-17 02:01N 47°34' W 122°26'5 9.6
2017-Nov-17 01:31N 47°30' W 122°24'5 9.5
2017-Nov-17 01:01N 47°25' W 122°22'4 8.1
2017-Nov-17 00:30N 47°21' W 122°23'4 8.3
2017-Nov-17 00:00N 47°18' W 122°27'3 0.3
2017-Nov-16 14:28N 47°16' W 122°23'2 4.3
2017-Nov-16 14:00N 47°17' W 122°25'2 3.2
2017-Nov-16 13:31N 47°18' W 122°27'4 7.2
2017-Nov-16 13:00N 47°21' W 122°25'3 6.9
2017-Nov-16 12:30N 47°24' W 122°23'4 8.6
2017-Nov-16 12:00N 47°28' W 122°26'4 8.4
2017-Nov-16 11:30N 47°32' W 122°27'4 7.9
2017-Nov-16 11:00N 47°36' W 122°24'2 4.6
2017-Nov-16 10:31N 47°36' W 122°21'1 1.5
2017-Nov-16 10:01N 47°35' W 122°21'0 0.0
2017-Nov-16 09:30N 47°35' W 122°21'0 0.0
2017-Nov-16 09:00N 47°35' W 122°21'0 0.0
2017-Nov-16 08:30N 47°35' W 122°21'0 0.0
2017-Nov-16 08:01N 47°35' W 122°21'0 0.0
2017-Nov-16 07:30N 47°35' W 122°21'0 0.0
2017-Nov-16 07:01N 47°35' W 122°21'0 0.0
2017-Nov-16 06:30N 47°35' W 122°21'0 0.0
2017-Nov-16 06:00N 47°35' W 122°21'0 0.0
2017-Nov-16 05:30N 47°35' W 122°21'0 0.0
2017-Nov-16 05:00N 47°35' W 122°21'0 0.0
2017-Nov-16 04:30N 47°35' W 122°21'0 0.0
2017-Nov-16 04:01N 47°35' W 122°21'0 0.0
2017-Nov-16 03:30N 47°35' W 122°21'0 0.0
2017-Nov-16 03:00N 47°35' W 122°21'0 0.0
2017-Nov-16 02:30N 47°35' W 122°21'0 0.0
2017-Nov-16 02:00N 47°35' W 122°21'0 0.1
2017-Nov-16 01:30N 47°35' W 122°21'0 0.1
2017-Nov-16 00:59N 47°35' W 122°21'0 0.1
2017-Nov-16 00:29N 47°35' W 122°21'1 2.3
2017-Nov-16 00:00N 47°36' W 122°21'2 3.4
2017-Nov-15 23:31N 47°36' W 122°24'3 6.0
2017-Nov-15 23:00N 47°39' W 122°26'3 5.9
2017-Nov-15 22:30N 47°42' W 122°26'3 6.2
2017-Nov-15 22:00N 47°45' W 122°25'2 4.4
2017-Nov-15 21:30N 47°47' W 122°24'0 0.7
2017-Nov-15 21:00N 47°47' W 122°24'0 0.0
2017-Nov-15 20:30N 47°47' W 122°24'0 0.0
2017-Nov-15 20:01N 47°47' W 122°24'0 0.0
2017-Nov-15 19:30N 47°47' W 122°24'0 0.0
2017-Nov-15 19:00N 47°47' W 122°24'0 0.0
2017-Nov-15 18:30N 47°47' W 122°24'0 0.0
2017-Nov-15 18:00N 47°47' W 122°24'0 0.0
2017-Nov-15 17:31N 47°47' W 122°24'0 0.0
2017-Nov-15 17:00N 47°47' W 122°24'0 0.0
2017-Nov-15 16:19N 47°47' W 122°24'0 0.0
2017-Nov-15 16:00N 47°47' W 122°24'0 0.0
2017-Nov-15 15:31N 47°47' W 122°24'0 0.0
2017-Nov-15 15:01N 47°47' W 122°24'0 0.0
2017-Nov-15 14:30N 47°47' W 122°24'0 0.0
2017-Nov-15 14:00N 47°47' W 122°24'0 0.0
2017-Nov-15 13:30N 47°47' W 122°24'0 0.0
2017-Nov-15 13:00N 47°47' W 122°24'0 0.0
2017-Nov-15 12:30N 47°47' W 122°24'0 0.0
2017-Nov-15 12:01N 47°47' W 122°24'0 0.6
2017-Nov-15 11:30N 47°47' W 122°24'2 4.7
2017-Nov-15 11:00N 47°45' W 122°26'3 6.5
2017-Nov-15 10:31N 47°42' W 122°26'3 6.4
2017-Nov-15 10:00N 47°39' W 122°27'4 7.1
2017-Nov-15 09:30N 47°36' W 122°23'2 3.7
2017-Nov-15 09:00N 47°35' W 122°21'1 1.5
2017-Nov-15 08:30N 47°34' W 122°21'0 0.0
2017-Nov-15 08:00N 47°34' W 122°21'0 0.0
2017-Nov-15 07:29N 47°34' W 122°21'0 0.0
2017-Nov-15 07:00N 47°34' W 122°21'0 0.0
2017-Nov-15 06:30N 47°34' W 122°21'0 0.0
2017-Nov-15 05:58N 47°34' W 122°21'0 0.0
2017-Nov-15 05:30N 47°34' W 122°21'0 0.0
2017-Nov-15 05:00N 47°34' W 122°21'0 0.0
2017-Nov-15 04:21N 47°34' W 122°21'0 0.0
2017-Nov-15 03:38N 47°34' W 122°21'0 0.0
2017-Nov-15 03:29N 47°34' W 122°21'0 0.0
2017-Nov-15 02:58N 47°34' W 122°21'0 0.0
2017-Nov-15 02:27N 47°34' W 122°21'0 0.0
2017-Nov-15 01:49N 47°34' W 122°21'0 0.0
2017-Nov-15 01:28N 47°34' W 122°21'0 0.0
2017-Nov-15 00:59N 47°34' W 122°21'0 0.0
2017-Nov-14 23:09N 47°34' W 122°21'0 0.0
2017-Nov-14 23:00N 47°34' W 122°21'0 0.0
2017-Nov-14 22:30N 47°34' W 122°21'0 0.0
2017-Nov-14 22:00N 47°34' W 122°21'1 2.8
2017-Nov-14 21:30N 47°36' W 122°21'0 0.5
2017-Nov-14 21:01N 47°36' W 122°22'2 4.4
2017-Nov-14 20:30N 47°36' W 122°25'2 3.9
2017-Nov-14 20:00N 47°36' W 122°22'2 3.3
2017-Nov-14 19:28N 47°34' W 122°21'0 0.0
2017-Nov-14 18:49N 47°34' W 122°21'0 0.0
2017-Nov-14 18:27N 47°34' W 122°21'0 0.0
2017-Nov-14 18:00N 47°34' W 122°21'0 0.6
2017-Nov-14 17:31N 47°35' W 122°21'1 1.4
2017-Nov-14 17:01N 47°35' W 122°21'3 6.2
2017-Nov-14 16:31N 47°35' W 122°25'611.4
2017-Nov-14 16:00N 47°30' W 122°24'611.9
2017-Nov-14 15:30N 47°24' W 122°21'611.0
2017-Nov-14 15:00N 47°20' W 122°26'3 0.2
2017-Nov-14 03:53N 47°17' W 122°25'1 1.0
2017-Nov-14 03:22N 47°17' W 122°26'1 2.7
2017-Nov-14 03:00N 47°18' W 122°27'1 1.4
2017-Nov-14 02:30N 47°18' W 122°28'1 1.7
2017-Nov-14 01:54N 47°18' W 122°27'1 3.0
2017-Nov-14 01:30N 47°18' W 122°28'1 1.3
2017-Nov-14 01:00N 47°19' W 122°28'1 1.9
2017-Nov-14 00:30N 47°20' W 122°28'1 2.0
2017-Nov-14 00:01N 47°21' W 122°27'1 2.1
2017-Nov-13 23:30N 47°21' W 122°25'1 1.6
2017-Nov-13 23:00N 47°22' W 122°25'1 1.0
2017-Nov-13 22:30N 47°22' W 122°24'1 1.7
2017-Nov-13 22:00N 47°22' W 122°23'6 0.2
2017-Nov-12 20:37N 47°17' W 122°26'0 1.0
2017-Nov-12 20:23N 47°17' W 122°26'0 0.4
2017-Nov-12 20:00N 47°17' W 122°26'3 0.1
2017-Nov-11 17:53N 47°16' W 122°23'0 0.0
2017-Nov-11 15:03N 47°16' W 122°23'0 0.0
2017-Nov-11 14:34N 47°16' W 122°23'0 0.0
2017-Nov-11 14:26N 47°16' W 122°23'0 0.0
2017-Nov-11 14:00N 47°16' W 122°23'2 1.9
2017-Nov-11 13:10N 47°17' W 122°25'1 3.0
2017-Nov-11 12:59N 47°17' W 122°25'1 2.7
2017-Nov-11 12:30N 47°18' W 122°27'2 3.8
2017-Nov-11 12:00N 47°20' W 122°28'2 4.6
2017-Nov-11 11:30N 47°21' W 122°25'3 5.9
2017-Nov-11 11:00N 47°23' W 122°22'3 5.1
2017-Nov-11 10:30N 47°25' W 122°24'3 5.5
2017-Nov-11 10:01N 47°28' W 122°25'3 5.8
2017-Nov-11 09:30N 47°31' W 122°27'3 6.1
2017-Nov-11 09:00N 47°34' W 122°28'3 6.1
2017-Nov-11 08:31N 47°37' W 122°28'3 6.8
2017-Nov-11 08:00N 47°40' W 122°28'4 7.0
2017-Nov-11 07:29N 47°44' W 122°28'3 6.7
2017-Nov-11 07:00N 47°46' W 122°25'1 2.1
2017-Nov-11 06:30N 47°47' W 122°24'0 0.1
2017-Nov-11 06:01N 47°47' W 122°24'0 0.0
2017-Nov-11 05:30N 47°47' W 122°24'0 0.0
2017-Nov-11 05:00N 47°47' W 122°24'0 0.0
2017-Nov-11 04:30N 47°47' W 122°24'0 0.0
2017-Nov-11 04:01N 47°47' W 122°24'0 0.0
2017-Nov-11 03:30N 47°47' W 122°24'0 0.0
2017-Nov-11 03:01N 47°47' W 122°24'0 0.0
2017-Nov-11 02:31N 47°47' W 122°24'0 0.0
2017-Nov-11 02:01N 47°47' W 122°24'0 0.0
2017-Nov-11 01:31N 47°47' W 122°24'0 0.0
2017-Nov-11 01:00N 47°47' W 122°24'0 0.0
2017-Nov-11 00:30N 47°47' W 122°24'0 0.0
2017-Nov-11 00:00N 47°47' W 122°24'0 0.0
2017-Nov-10 23:30N 47°47' W 122°24'0 0.0
2017-Nov-10 23:00N 47°47' W 122°24'0 0.0
2017-Nov-10 22:30N 47°47' W 122°24'0 0.0
2017-Nov-10 22:00N 47°47' W 122°24'0 0.0
2017-Nov-10 21:31N 47°47' W 122°24'0 0.0
2017-Nov-10 21:00N 47°47' W 122°24'0 0.0
2017-Nov-10 20:30N 47°47' W 122°24'0 0.0
2017-Nov-10 20:00N 47°47' W 122°24'0 0.0
2017-Nov-10 19:30N 47°47' W 122°24'0 0.0
2017-Nov-10 19:01N 47°47' W 122°24'0 0.0
2017-Nov-10 18:30N 47°47' W 122°24'0 0.0
2017-Nov-10 18:00N 47°47' W 122°24'0 0.0
2017-Nov-10 17:30N 47°47' W 122°24'0 0.0
2017-Nov-10 17:01N 47°47' W 122°24'0 0.0
2017-Nov-10 16:30N 47°47' W 122°24'0 0.0
2017-Nov-10 16:00N 47°47' W 122°24'0 0.0
2017-Nov-10 15:31N 47°47' W 122°24'0 0.0
2017-Nov-10 15:00N 47°47' W 122°24'0 0.0
2017-Nov-10 14:31N 47°47' W 122°24'0 0.0
2017-Nov-10 14:00N 47°47' W 122°24'0 0.0
2017-Nov-10 13:30N 47°47' W 122°24'0 0.0
2017-Nov-10 13:00N 47°47' W 122°24'0 0.0
2017-Nov-10 12:31N 47°47' W 122°24'0 0.0
2017-Nov-10 12:00N 47°47' W 122°24'0 0.0
2017-Nov-10 11:31N 47°47' W 122°24'0 0.0
2017-Nov-10 11:01N 47°47' W 122°24'0 0.0
2017-Nov-10 10:30N 47°47' W 122°24'0 0.0
2017-Nov-10 10:00N 47°47' W 122°24'0 0.2
2017-Nov-10 09:30N 47°47' W 122°24'0 0.0
2017-Nov-10 09:01N 47°47' W 122°24'0 0.0
2017-Nov-10 08:30N 47°47' W 122°24'0 0.0
2017-Nov-10 08:01N 47°47' W 122°24'0 0.0
2017-Nov-10 07:30N 47°47' W 122°24'0 0.0
2017-Nov-10 07:00N 47°47' W 122°24'0 0.0
2017-Nov-10 06:30N 47°47' W 122°24'0 0.0
2017-Nov-10 06:01N 47°47' W 122°24'0 0.0
2017-Nov-10 05:30N 47°47' W 122°24'0 0.0
2017-Nov-10 05:00N 47°47' W 122°24'0 0.0
2017-Nov-10 04:31N 47°47' W 122°24'0 0.0
2017-Nov-10 04:00N 47°47' W 122°24'0 0.0
2017-Nov-10 03:30N 47°47' W 122°24'0 0.0
2017-Nov-10 03:01N 47°47' W 122°24'0 0.0
2017-Nov-10 02:30N 47°47' W 122°24'2 3.5
2017-Nov-10 02:00N 47°45' W 122°25'4 7.6
2017-Nov-10 01:29N 47°41' W 122°26'4 7.2
2017-Nov-10 00:59N 47°38' W 122°25'4 7.7
2017-Nov-10 00:31N 47°36' W 122°21'0 0.5
2017-Nov-10 00:00N 47°35' W 122°21'0 0.4
2017-Nov-09 23:30N 47°35' W 122°21'0 0.4
2017-Nov-09 23:00N 47°35' W 122°21'0 0.0
2017-Nov-09 22:26N 47°35' W 122°21'0 0.0
2017-Nov-09 22:00N 47°35' W 122°21'0 0.0
2017-Nov-09 21:30N 47°35' W 122°21'0 0.0
2017-Nov-09 21:01N 47°35' W 122°21'0 0.0
2017-Nov-09 20:30N 47°35' W 122°21'0 0.0
2017-Nov-09 20:00N 47°35' W 122°21'0 0.0
2017-Nov-09 19:30N 47°35' W 122°21'0 0.0
2017-Nov-09 19:01N 47°35' W 122°21'0 0.0
2017-Nov-09 18:30N 47°35' W 122°21'0 0.0
2017-Nov-09 17:53N 47°35' W 122°21'0 0.0
2017-Nov-09 17:30N 47°35' W 122°21'0 0.0
2017-Nov-09 17:01N 47°35' W 122°21'0 0.5
2017-Nov-09 16:30N 47°35' W 122°21'0 0.5
2017-Nov-09 16:00N 47°35' W 122°21'0 0.0
2017-Nov-09 15:30N 47°35' W 122°21'0 1.0
2017-Nov-09 15:00N 47°36' W 122°21'1 2.2
2017-Nov-09 14:30N 47°36' W 122°23'2 4.6
2017-Nov-09 14:00N 47°37' W 122°25'3 6.3
2017-Nov-09 13:30N 47°40' W 122°28'4 7.2
2017-Nov-09 13:00N 47°43' W 122°27'4 8.0
2017-Nov-09 12:30N 47°47' W 122°27'4 8.3
2017-Nov-09 12:00N 47°51' W 122°29'4 8.2
2017-Nov-09 11:30N 47°55' W 122°31'35 6.7
2017-Nov-09 06:15N 48°29' W 122°44'3 9.0
2017-Nov-09 05:57N 48°31' W 122°41'4 8.6
2017-Nov-09 05:31N 48°31' W 122°35'1 2.1
2017-Nov-09 05:00N 48°30' W 122°34'0 0.0
2017-Nov-09 04:31N 48°30' W 122°34'0 0.0
2017-Nov-09 04:00N 48°30' W 122°34'0 0.0
2017-Nov-09 03:30N 48°30' W 122°34'0 0.0
2017-Nov-09 03:00N 48°30' W 122°34'0 0.0
2017-Nov-09 02:30N 48°30' W 122°34'0 0.0
2017-Nov-09 02:00N 48°30' W 122°34'0 0.0
2017-Nov-09 01:30N 48°30' W 122°34'0 0.0
2017-Nov-09 01:00N 48°30' W 122°34'0 0.0
2017-Nov-09 00:30N 48°30' W 122°34'0 0.0
2017-Nov-09 00:01N 48°30' W 122°34'0 0.0
2017-Nov-08 23:30N 48°30' W 122°34'0 0.0
2017-Nov-08 23:00N 48°30' W 122°34'0 0.0
2017-Nov-08 22:31N 48°30' W 122°34'0 0.0
2017-Nov-08 22:00N 48°30' W 122°34'0 0.0
2017-Nov-08 21:30N 48°30' W 122°34'0 0.0
2017-Nov-08 21:00N 48°30' W 122°34'0 0.0
2017-Nov-08 20:30N 48°30' W 122°34'0 0.0
2017-Nov-08 20:00N 48°30' W 122°34'0 0.0
2017-Nov-08 19:30N 48°30' W 122°34'0 0.0
2017-Nov-08 19:00N 48°30' W 122°34'0 0.0
2017-Nov-08 18:30N 48°30' W 122°34'0 0.0
2017-Nov-08 18:00N 48°30' W 122°34'0 0.0
2017-Nov-08 17:30N 48°30' W 122°34'0 0.0
2017-Nov-08 17:00N 48°30' W 122°34'0 0.0
2017-Nov-08 16:31N 48°30' W 122°34'0 0.0
2017-Nov-08 16:00N 48°30' W 122°34'0 0.0
2017-Nov-08 15:30N 48°30' W 122°34'0 0.6
2017-Nov-08 15:01N 48°31' W 122°35'1 2.1
2017-Nov-08 14:30N 48°32' W 122°35'  

Dump ship's entire track history